Agana Heights, GU

1:08 PM ChST on November 21, 2014 (GMT +1000)
Maite | Change Station
CLOSE
Current Station
Personal Weather Station
Location: Maite, GU
Elevation: 140 ft
Nearby Weather Stations

Elev 140 ft 13.48 °N, 144.76 °E | Updated 16 seconds ago

Mostly Cloudy
Mostly Cloudy
85.0 °F
Feels Like 97 °F
N
5.0
Wind Variable Wind from East
Gusts 12.0 mph

Today
High -- | Low -- °F
--% Chance of Precip.
Yesterday
High -- | Low -- °F
Precip. -- in
6:22 AM 5:50 PM
Waning Crescent, 2% visible
Pressure 29.87 in
Visibility 10.0 miles
Clouds Scattered Clouds 2400 ft
Scattered Clouds 3000 ft
Mostly Cloudy 5000 ft
Heat Index 97 °F
Dew Point 78 °F
Humidity 80%
Rainfall 0.09 in
Snow Depth Not available.
UV 10.3 out of 12
Pollen Not available.
Air Quality Not available.
Flu Activity Not available.
SPECI PGUM 210301Z 08009KT 10SM SCT024 SCT030 BKN050 31/25 A2987 RMK AO2

More Conditions Fewer Conditions

Pressure 29.87 in
Visibility 10.0 miles
Clouds Scattered Clouds 2400 ft
Scattered Clouds 3000 ft
Mostly Cloudy 5000 ft
Heat Index 97 °F
Dew Point 78 °F
Humidity 80%
Rainfall 0.09 in
Snow Depth Not available.
UV 10.3 out of 12
Pollen Not available.
Air Quality Not available.
Flu Activity Not available.
SPECI PGUM 210301Z 08009KT 10SM SCT024 SCT030 BKN050 31/25 A2987 RMK AO2

More Conditions Fewer Conditions

10-Day Weather Forecast

Almanac

Astronomy

Nov. 21, 2014 Rise Set
Actual Time
Civil Twilight
Nautical Twilight
Astronomical Twilight
Moon
Length of Visible Light
Length of Day
Tomorrow will be .
, % of the Moon is Illuminated

Today's Extremes

State Highs State Lows

Community

WunderPhotos

Upload Photos

1,772,609 photos uploaded!

WunderBlogs® & News

Nearby

Air Quality

  Air Quality AQ Index Pollutant
Not available.

Snow Depth

Station Depth Elevation

Earthquake Activity

City Distance Mag. Time & Date
Minimum magnitude displayed is 2.5.

Coastal Water Temperatures

Place Temperature

Nearby Weather Stations